Time;durP1;ratioP1;P1;durP2;ratioP2;P2;SDS_P1;SDS_P2;PMS_P1;PMS_P2;Temp;Humidity;BMP_temperature;BMP_pressure;BME280_temperature;BME280_humidity;BME280_pressure;Samples;Min_cycle;Max_cycle;Signal;HPM_P1;HPM_P2
2024/04/23 00:00:53;;;;;;;20.00;12.00;;;;;;;4.34;85.26;101250.98;106703;1254;98413;-90
2024/04/23 00:03:44;;;;;;;25.70;12.40;;;;;;;4.35;85.44;101250.25;106767;1257;102762;-90
2024/04/23 00:06:30;;;;;;;19.30;11.30;;;;;;;4.35;85.56;101247.23;106796;1254;101517;-89
2024/04/23 00:09:16;;;;;;;19.20;12.40;;;;;;;4.36;85.46;101246.26;106724;1259;98379;-90
2024/04/23 00:12:02;;;;;;;22.60;12.30;;;;;;;4.36;85.32;101240.61;106876;1257;98034;-91
2024/04/23 00:14:48;;;;;;;19.20;11.60;;;;;;;4.36;85.64;101239.22;106735;1256;98387;-91
2024/04/23 00:17:34;;;;;;;22.60;13.00;;;;;;;4.35;85.52;101236.83;106666;1256;101321;-89
2024/04/23 00:20:19;;;;;;;20.30;12.40;;;;;;;4.32;85.15;101236.38;106755;1257;99162;-90
2024/04/23 00:23:05;;;;;;;22.60;14.20;;;;;;;4.29;85.29;101236.98;106485;1254;98084;-89
2024/04/23 00:25:51;;;;;;;29.70;16.60;;;;;;;4.28;85.48;101237.02;106612;1257;98003;-88
2024/04/23 00:28:37;;;;;;;23.10;14.70;;;;;;;4.28;85.65;101234.01;106723;1257;97949;-89
2024/04/23 00:31:23;;;;;;;28.30;14.80;;;;;;;4.28;85.50;101230.35;106913;1259;101379;-89
2024/04/23 00:34:08;;;;;;;24.40;12.70;;;;;;;4.27;85.52;101226.58;107056;1259;99155;-88
2024/04/23 00:36:59;;;;;;;23.30;13.20;;;;;;;4.25;85.24;101227.58;106870;1262;97964;-89
2024/04/23 00:39:44;;;;;;;23.70;13.10;;;;;;;4.24;85.34;101228.06;106604;1262;98563;-88
2024/04/23 00:42:30;;;;;;;22.10;12.60;;;;;;;4.23;85.56;101224.09;106568;1257;99544;-87
2024/04/23 00:45:21;;;;;;;25.20;13.10;;;;;;;4.24;85.73;101228.23;106838;1260;102637;-88
2024/04/23 00:48:07;;;;;;;19.80;11.80;;;;;;;4.23;85.91;101228.83;106877;1260;100390;-90
2024/04/23 00:50:56;;;;;;;21.70;12.70;;;;;;;4.21;85.73;101230.23;106723;1256;97663;-88
2024/04/23 00:53:42;;;;;;;23.00;13.20;;;;;;;4.19;85.85;101230.05;106914;1256;98231;-90
2024/04/23 00:56:29;;;;;;;24.30;13.60;;;;;;;4.18;85.91;101227.67;107092;1260;97889;-89
2024/04/23 00:59:16;;;;;;;20.70;12.30;;;;;;;4.20;85.97;101227.17;106724;1262;101368;-89
2024/04/23 01:02:02;;;;;;;21.00;11.90;;;;;;;4.20;85.94;101226.10;106504;1254;99140;-89
2024/04/23 01:04:48;;;;;;;21.80;12.70;;;;;;;4.19;85.98;101228.52;106733;1257;99627;-89
2024/04/23 01:07:34;;;;;;;23.00;12.20;;;;;;;4.16;86.06;101231.77;106636;1256;97910;-90
2024/04/23 01:10:20;;;;;;;22.00;12.40;;;;;;;4.16;86.11;101234.71;106609;1260;97967;-88
2024/04/23 01:13:05;;;;;;;21.90;12.80;;;;;;;4.17;86.46;101235.23;106769;1254;102057;-89
2024/04/23 01:15:51;;;;;;;22.90;13.70;;;;;;;4.17;86.27;101235.23;106709;1255;100373;-89
2024/04/23 01:18:38;;;;;;;19.80;12.50;;;;;;;4.17;86.28;101235.34;106677;1257;98071;-88
2024/04/23 01:21:32;;;;;;;22.80;12.60;;;;;;;4.17;86.22;101235.23;106902;1254;97874;-89
2024/04/23 01:24:22;;;;;;;22.60;12.90;;;;;;;4.16;86.20;101233.71;107010;1259;98029;-88
2024/04/23 01:27:09;;;;;;;18.80;12.00;;;;;;;4.14;86.27;101229.94;106886;1257;101390;-89
2024/04/23 01:29:56;;;;;;;22.30;13.40;;;;;;;4.13;86.17;101225.27;106984;1254;99111;-90
2024/04/23 01:32:43;;;;;;;22.00;13.40;;;;;;;4.13;86.44;101223.91;106774;1254;99488;-89
2024/04/23 01:35:30;;;;;;;21.60;13.60;;;;;;;4.13;86.43;101224.91;106612;1264;97971;-90
2024/04/23 01:38:17;;;;;;;22.80;13.00;;;;;;;4.13;86.48;101219.97;106916;1254;98793;-88
2024/04/23 01:41:05;;;;;;;21.80;13.40;;;;;;;4.13;86.62;101218.75;106768;1257;102651;-89
2024/04/23 01:43:52;;;;;;;21.80;12.60;;;;;;;4.13;86.43;101215.26;106880;1259;100797;-90
2024/04/23 01:46:39;;;;;;;25.70;13.70;;;;;;;4.11;86.33;101214.88;106752;1260;98434;-90
2024/04/23 01:49:25;;;;;;;25.10;13.60;;;;;;;4.11;86.49;101214.90;106853;1260;97940;-89
2024/04/23 01:52:11;;;;;;;20.10;13.40;;;;;;;4.10;86.59;101213.74;106701;1257;99279;-90
2024/04/23 01:54:57;;;;;;;25.80;13.20;;;;;;;4.09;86.65;101214.89;106842;1262;102644;-90
2024/04/23 01:57:44;;;;;;;22.70;12.60;;;;;;;4.10;86.68;101214.28;106769;1260;99164;-90
2024/04/23 02:00:34;;;;;;;20.30;13.40;;;;;;;4.10;86.90;101216.14;106790;1259;97725;-89
2024/04/23 02:03:21;;;;;;;24.60;13.60;;;;;;;4.12;86.85;101216.00;106687;1254;96617;-89
2024/04/23 02:06:07;;;;;;;20.40;12.90;;;;;;;4.12;87.02;101217.56;106948;1259;97859;-92
2024/04/23 02:08:54;;;;;;;25.50;13.00;;;;;;;4.12;86.89;101216.70;106961;1255;101997;-91
2024/04/23 02:11:41;;;;;;;22.60;12.70;;;;;;;4.14;87.16;101214.79;106627;1261;100449;-89
2024/04/23 02:14:27;;;;;;;22.30;12.50;;;;;;;4.14;87.09;101211.91;106720;1263;98736;-89
2024/04/23 02:17:14;;;;;;;22.80;13.60;;;;;;;4.14;86.93;101216.55;107010;1254;98622;-90
2024/04/23 02:20:01;;;;;;;20.70;12.90;;;;;;;4.13;87.10;101217.20;106832;1257;97974;-89
2024/04/23 02:22:47;;;;;;;22.80;13.60;;;;;;;4.12;87.02;101220.43;106709;1256;102292;-90
2024/04/23 02:25:34;;;;;;;22.70;13.30;;;;;;;4.12;87.09;101219.92;106616;1259;100065;-88
2024/04/23 02:28:20;;;;;;;24.60;13.30;;;;;;;4.09;87.04;101221.02;106674;1260;98051;-88
2024/04/23 02:31:06;;;;;;;23.60;12.40;;;;;;;4.08;87.03;101221.12;106893;1263;98038;-89
2024/04/23 02:33:52;;;;;;;25.10;14.10;;;;;;;4.08;87.03;101223.80;106703;1256;98067;-89
2024/04/23 02:36:38;;;;;;;27.80;13.90;;;;;;;4.07;87.18;101221.70;106616;1259;102489;-87
2024/04/23 02:39:24;;;;;;;24.80;13.60;;;;;;;4.08;87.07;101221.13;106779;1260;100358;-89
2024/04/23 02:42:10;;;;;;;24.80;13.50;;;;;;;4.06;86.96;101219.90;106696;1254;99493;-89
2024/04/23 02:44:56;;;;;;;21.70;12.60;;;;;;;4.05;87.29;101221.70;106430;1264;98062;-89
2024/04/23 02:47:43;;;;;;;23.80;13.50;;;;;;;4.05;87.02;101221.39;106688;1261;98021;-90
2024/04/23 02:50:28;;;;;;;25.50;13.90;;;;;;;4.04;87.15;101221.67;106938;1260;101257;-88
2024/04/23 02:53:15;;;;;;;24.90;14.60;;;;;;;4.04;87.29;101228.37;106621;1257;100301;-88
2024/04/23 02:56:00;;;;;;;27.50;15.20;;;;;;;4.05;87.34;101226.15;106736;1257;98096;-88
2024/04/23 02:58:46;;;;;;;25.30;14.40;;;;;;;4.05;87.39;101220.70;106712;1257;97856;-89
2024/04/23 03:01:32;;;;;;;25.20;14.30;;;;;;;4.04;87.35;101220.73;106760;1263;96516;-90
2024/04/23 03:04:19;;;;;;;28.10;14.80;;;;;;;4.04;87.34;101219.70;106775;1260;102619;-87
2024/04/23 03:07:05;;;;;;;30.40;14.70;;;;;;;4.04;87.52;101221.33;106631;1257;99184;-89
2024/04/23 03:09:50;;;;;;;27.90;17.50;;;;;;;4.03;87.54;101222.76;106843;1267;99276;-89
2024/04/23 03:12:37;;;;;;;24.80;15.30;;;;;;;4.03;87.62;101223.31;106819;1258;97952;-89
2024/04/23 03:15:23;;;;;;;23.60;14.20;;;;;;;4.03;87.67;101224.02;106667;1261;98386;-90
2024/04/23 03:18:09;;;;;;;22.70;14.20;;;;;;;4.03;87.89;101225.23;106789;1260;101317;-87
2024/04/23 03:20:55;;;;;;;25.50;13.90;;;;;;;4.03;87.69;101224.01;106698;1258;99172;-87
2024/04/23 03:23:41;;;;;;;23.40;14.20;;;;;;;4.03;87.83;101225.28;106993;1260;98003;-89
2024/04/23 03:26:27;;;;;;;24.60;14.50;;;;;;;4.04;87.93;101224.31;106724;1261;97933;-89
2024/04/23 03:29:12;;;;;;;23.30;14.20;;;;;;;4.04;87.97;101220.23;106755;1256;97886;-90
2024/04/23 03:32:03;;;;;;;23.80;14.50;;;;;;;4.05;87.91;101220.36;106843;1263;102548;-89
2024/04/23 03:34:49;;;;;;;23.10;14.70;;;;;;;4.05;87.80;101216.77;106629;1260;99125;-88
2024/04/23 03:37:34;;;;;;;22.70;12.80;;;;;;;4.04;87.77;101212.43;106585;1258;97956;-89
2024/04/23 03:40:20;;;;;;;25.50;14.40;;;;;;;4.02;87.68;101211.42;106729;1256;97884;-90
2024/04/23 03:43:06;;;;;;;21.60;13.60;;;;;;;4.02;87.64;101209.27;106548;1256;98461;-89
2024/04/23 03:45:52;;;;;;;23.30;13.60;;;;;;;4.03;87.81;101209.40;106520;1257;101392;-90
2024/04/23 03:48:38;;;;;;;24.40;15.10;;;;;;;4.04;87.60;101208.44;106757;1263;100003;-88
2024/04/23 03:51:23;;;;;;;26.30;15.00;;;;;;;4.04;87.70;101206.09;106580;1263;97969;-89
2024/04/23 03:54:10;;;;;;;22.50;14.50;;;;;;;4.05;87.84;101209.73;106687;1263;96622;-90
2024/04/23 03:56:55;;;;;;;25.10;15.10;;;;;;;4.05;88.02;101210.93;106591;1256;98089;-89
2024/04/23 03:59:41;;;;;;;24.50;14.80;;;;;;;4.06;88.02;101213.53;106909;1257;102353;-89
2024/04/23 04:08:40;;;;;;;25.20;14.20;;;;;;;4.07;88.18;101218.73;107047;1256;96668;-88
2024/04/23 04:11:31;;;;;;;21.30;12.80;;;;;;;4.06;88.18;101221.11;106900;1256;95692;-89
2024/04/23 04:14:17;;;;;;;29.50;15.00;;;;;;;4.06;88.26;101220.40;107090;1256;101392;-90
2024/04/23 04:17:03;;;;;;;32.10;15.60;;;;;;;4.07;88.42;101219.98;107323;1257;99032;-90
2024/04/23 04:19:48;;;;;;;26.40;14.80;;;;;;;4.08;88.51;101216.02;107127;1257;97752;-90
2024/04/23 04:22:34;;;;;;;26.80;15.20;;;;;;;4.10;88.59;101213.55;106999;1257;96516;-88
2024/04/23 04:25:20;;;;;;;24.00;13.10;;;;;;;4.11;88.61;101215.38;106920;1257;97955;-88
2024/04/23 04:28:06;;;;;;;24.40;14.60;;;;;;;4.12;88.67;101212.98;106998;1260;101406;-89
2024/04/23 04:30:52;;;;;;;26.00;13.70;;;;;;;4.13;88.57;101212.91;106829;1256;99077;-89
2024/04/23 04:33:39;;;;;;;22.90;12.60;;;;;;;4.14;88.58;101209.46;106725;1257;98108;-90
2024/04/23 04:36:25;;;;;;;23.40;13.40;;;;;;;4.15;88.82;101212.05;106783;1261;97903;-89
2024/04/23 04:39:11;;;;;;;25.40;13.60;;;;;;;4.15;88.96;101205.67;106901;1258;98477;-88
2024/04/23 04:41:59;;;;;;;21.20;13.50;;;;;;;4.15;89.17;101209.17;106610;1256;102613;-88
2024/04/23 04:44:45;;;;;;;24.50;14.40;;;;;;;4.16;88.79;101209.85;106562;1259;101142;-88
2024/04/23 04:47:33;;;;;;;25.80;13.70;;;;;;;4.16;88.95;101211.72;106663;1257;98875;-86
2024/04/23 04:50:19;;;;;;;23.00;14.00;;;;;;;4.16;88.60;101211.05;107384;1258;96607;-90
2024/04/23 04:53:04;;;;;;;22.30;14.00;;;;;;;4.15;88.58;101210.23;107968;1256;95820;-87
2024/04/23 04:55:52;;;;;;;24.80;14.10;;;;;;;4.10;88.13;101211.55;108116;1256;101550;-89
2024/04/23 04:58:39;;;;;;;22.50;14.30;;;;;;;4.08;88.20;101207.55;108287;1258;100500;-90
2024/04/23 05:01:25;;;;;;;26.10;14.50;;;;;;;4.08;88.33;101209.98;107984;1254;97865;-89
2024/04/23 05:04:11;;;;;;;26.00;15.50;;;;;;;4.10;88.63;101209.65;107954;1257;97779;-90
2024/04/23 05:06:56;;;;;;;26.60;13.70;;;;;;;4.13;88.78;101209.95;107358;1256;98410;-90
2024/04/23 05:09:43;;;;;;;20.70;13.00;;;;;;;4.14;88.37;101211.57;106691;1264;101357;-89
2024/04/23 05:12:29;;;;;;;22.50;13.40;;;;;;;4.15;88.24;101209.23;107078;1257;99036;-89
2024/04/23 05:15:16;;;;;;;25.80;14.70;;;;;;;4.19;88.48;101207.65;106692;1263;97987;-89
2024/04/23 05:18:02;;;;;;;25.20;14.40;;;;;;;4.19;88.04;101206.41;106755;1256;98116;-89
2024/04/23 05:20:47;;;;;;;27.40;15.50;;;;;;;4.20;88.25;101206.33;106575;1257;98466;-90
2024/04/23 05:23:33;;;;;;;22.90;14.90;;;;;;;4.22;88.19;101209.81;106599;1256;102669;-89
2024/04/23 05:26:20;;;;;;;25.00;13.90;;;;;;;4.26;88.34;101210.35;106770;1257;100428;-90
2024/04/23 05:29:05;;;;;;;24.30;14.20;;;;;;;4.31;88.39;101209.88;106421;1264;98573;-90
2024/04/23 05:34:58;;;;;;;22.50;13.40;;;;;;;4.39;88.61;101212.02;106805;1257;98422;-89
2024/04/23 05:37:44;;;;;;;23.40;14.30;;;;;;;4.44;88.30;101217.64;106733;1258;101323;-88
2024/04/23 05:40:30;;;;;;;24.00;14.70;;;;;;;4.46;87.98;101215.81;106797;1255;100473;-89
2024/04/23 05:43:16;;;;;;;31.00;19.10;;;;;;;4.49;87.94;101216.81;106723;1257;98989;-89
2024/04/23 05:46:04;;;;;;;25.10;17.20;;;;;;;4.52;87.54;101216.56;106651;1257;96733;-87
2024/04/23 05:49:28;;;;;;;24.60;15.50;;;;;;;4.53;87.62;101218.39;106752;1257;97869;-88
2024/04/23 05:53:10;;;;;;;24.30;15.30;;;;;;;4.58;87.88;101217.41;106849;1257;102382;-87
2024/04/23 05:56:15;;;;;;;23.80;15.00;;;;;;;4.66;88.31;101216.37;106822;1257;100609;-89
2024/04/23 05:59:01;;;;;;;27.60;14.70;;;;;;;4.74;87.96;101219.98;106792;1257;97987;-88
2024/04/23 06:01:46;;;;;;;25.40;14.70;;;;;;;4.77;87.50;101220.19;106600;1263;97914;-88
2024/04/23 06:04:32;;;;;;;23.70;14.80;;;;;;;4.81;87.41;101221.81;106612;1263;97888;-89
2024/04/23 06:07:18;;;;;;;24.70;14.50;;;;;;;4.85;87.22;101222.32;106813;1257;101421;-89
2024/04/23 06:10:04;;;;;;;24.10;13.40;;;;;;;4.89;87.21;101226.18;106684;1261;100509;-89
2024/04/23 06:12:50;;;;;;;23.60;15.00;;;;;;;4.92;87.21;101232.65;106745;1259;98067;-89
2024/04/23 06:15:36;;;;;;;24.20;14.00;;;;;;;4.97;87.10;101238.92;106728;1262;97971;-88
2024/04/23 06:18:23;;;;;;;23.10;13.80;;;;;;;4.97;86.33;101236.98;106768;1258;98063;-89
2024/04/23 06:21:13;;;;;;;25.40;13.60;;;;;;;4.99;86.59;101237.67;106755;1259;102022;-88
2024/04/23 06:23:58;;;;;;;21.30;13.50;;;;;;;5.01;86.22;101238.94;106812;1254;100892;-89
2024/04/23 06:26:45;;;;;;;23.70;13.40;;;;;;;5.02;85.97;101235.27;107004;1254;97872;-88
2024/04/23 06:29:30;;;;;;;20.20;13.10;;;;;;;5.05;85.94;101238.39;106950;1254;97941;-88
2024/04/23 06:32:17;;;;;;;25.50;13.80;;;;;;;5.08;85.81;101242.42;106645;1263;96628;-88
2024/04/23 06:35:05;;;;;;;26.80;15.00;;;;;;;5.10;85.71;101238.45;106719;1254;102757;-89
2024/04/23 06:37:51;;;;;;;24.90;13.80;;;;;;;5.14;85.70;101237.77;106995;1262;101446;-88
2024/04/23 06:40:37;;;;;;;20.80;13.20;;;;;;;5.17;85.20;101241.71;106801;1257;98969;-89
2024/04/23 06:43:22;;;;;;;21.70;13.60;;;;;;;5.23;85.56;101241.73;106504;1256;98065;-89
2024/04/23 06:46:09;;;;;;;21.40;13.50;;;;;;;5.29;85.26;101243.30;106755;1254;97964;-89
2024/04/23 06:48:56;;;;;;;18.10;12.20;;;;;;;5.33;84.80;101248.20;107001;1254;102582;-90
2024/04/23 06:51:43;;;;;;;22.70;12.20;;;;;;;5.37;84.39;101238.73;106904;1257;99120;-89
2024/04/23 06:54:29;;;;;;;22.80;12.70;;;;;;;5.43;85.00;101238.48;106680;1259;98707;-89
2024/04/23 06:57:15;;;;;;;19.80;12.00;;;;;;;5.49;84.15;101237.39;106858;1254;97827;-87
2024/04/23 07:00:01;;;;;;;20.70;12.10;;;;;;;5.55;84.37;101235.64;106838;1260;97840;-89
2024/04/23 07:02:47;;;;;;;20.60;12.60;;;;;;;5.62;84.41;101235.14;106827;1254;101347;-87
2024/04/23 07:05:33;;;;;;;20.20;12.20;;;;;;;5.68;83.95;101239.27;106985;1260;99185;-88
2024/04/23 07:08:19;;;;;;;26.40;13.10;;;;;;;5.74;83.61;101234.44;106845;1254;98062;-89
2024/04/23 07:11:05;;;;;;;21.10;11.20;;;;;;;5.82;84.10;101231.52;106645;1254;95894;-89
2024/04/23 07:13:50;;;;;;;21.20;12.70;;;;;;;5.92;84.09;101232.23;106776;1254;98064;-87
2024/04/23 07:16:36;;;;;;;18.70;10.80;;;;;;;6.02;83.57;101236.27;106824;1260;102213;-88
2024/04/23 07:19:22;;;;;;;18.00;11.60;;;;;;;6.09;83.05;101235.77;106897;1253;100373;-89
2024/04/23 07:22:08;;;;;;;19.10;11.60;;;;;;;6.14;82.43;101239.52;106812;1256;98063;-89
2024/04/23 07:24:54;;;;;;;16.20;10.90;;;;;;;6.19;82.42;101239.61;106635;1257;97977;-88
2024/04/23 07:27:40;;;;;;;18.70;11.50;;;;;;;6.25;82.37;101237.63;106782;1257;97963;-89
2024/04/23 07:30:26;;;;;;;15.90;10.70;;;;;;;6.30;82.01;101237.67;106367;1261;102601;-80
2024/04/23 07:33:12;;;;;;;16.90;10.20;;;;;;;6.34;81.30;101242.09;106456;1254;99717;-81
2024/04/23 07:35:57;;;;;;;19.80;11.30;;;;;;;6.37;80.61;101243.91;106542;1255;98980;-80
2024/04/23 07:38:43;;;;;;;19.80;11.00;;;;;;;6.43;81.40;101243.36;106384;1256;97893;-80
2024/04/23 07:41:28;;;;;;;15.90;11.00;;;;;;;6.48;80.64;101242.39;106323;1256;98409;-79
2024/04/23 07:44:13;;;;;;;16.10;10.90;;;;;;;6.50;79.93;101237.56;105833;1256;102419;-81
2024/04/23 07:46:58;;;;;;;17.90;10.70;;;;;;;6.50;79.55;101237.20;106810;1257;99671;-80
2024/04/23 07:49:44;;;;;;;16.50;10.20;;;;;;;6.56;80.40;101237.30;105845;1255;98934;-78
2024/04/23 07:52:29;;;;;;;16.80;10.30;;;;;;;6.62;80.12;101233.35;105628;1254;98075;-79
2024/04/23 07:55:15;;;;;;;17.20;11.00;;;;;;;6.66;79.65;101234.96;106086;1258;97996;-79
2024/04/23 07:58:00;;;;;;;19.10;11.10;;;;;;;6.72;79.85;101236.67;106563;1255;102295;-80
2024/04/23 08:00:46;;;;;;;15.70;10.60;;;;;;;6.77;79.35;101235.27;106047;1254;99243;-79
2024/04/23 08:03:34;;;;;;;16.40;11.00;;;;;;;6.80;79.31;101234.12;106447;1256;97874;-80
2024/04/23 08:06:20;;;;;;;23.40;11.80;;;;;;;6.84;79.02;101229.61;106709;1256;98005;-80
2024/04/23 08:09:05;;;;;;;25.30;12.80;;;;;;;6.89;78.63;101228.84;106669;1256;98500;-80
2024/04/23 08:11:51;;;;;;;20.00;11.80;;;;;;;6.91;78.30;101227.33;106391;1254;101534;-80
2024/04/23 08:14:36;;;;;;;20.60;11.80;;;;;;;6.91;77.70;101225.33;106491;1254;99074;-80
2024/04/23 08:17:22;;;;;;;21.30;13.30;;;;;;;6.90;77.22;101228.17;106666;1255;97733;-79
2024/04/23 08:20:08;;;;;;;18.90;12.10;;;;;;;6.90;77.36;101226.40;105957;1256;98654;-80
2024/04/23 08:22:57;;;;;;;19.50;12.90;;;;;;;6.91;77.10;101223.99;106110;1257;98456;-79
2024/04/23 08:25:42;;;;;;;19.20;13.30;;;;;;;6.92;77.04;101224.20;106626;1254;103021;-80
2024/04/23 08:28:27;;;;;;;22.60;12.20;;;;;;;6.93;77.05;101218.58;106584;1254;100084;-79
2024/04/23 08:31:13;;;;;;;19.10;12.10;;;;;;;6.96;76.82;101216.52;106417;1254;98185;-79
2024/04/23 08:33:59;;;;;;;18.60;12.00;;;;;;;6.97;76.38;101215.16;106011;1254;97954;-79
2024/04/23 08:36:45;;;;;;;19.50;13.10;;;;;;;6.99;76.09;101211.98;106182;1254;96638;-79
2024/04/23 08:39:31;;;;;;;18.30;12.80;;;;;;;7.04;76.36;101213.52;106034;1259;102036;-79
2024/04/23 08:42:21;;;;;;;19.20;12.30;;;;;;;7.05;76.05;101207.92;106145;1254;99856;-79
2024/04/23 08:45:09;;;;;;;16.10;11.00;;;;;;;7.08;75.87;101201.06;105955;1254;98424;-79
2024/04/23 08:47:55;;;;;;;16.60;11.00;;;;;;;7.14;75.66;101197.05;106136;1254;98933;-80
2024/04/23 08:50:42;;;;;;;16.20;11.90;;;;;;;7.23;75.50;101195.30;106623;1257;98392;-81
2024/04/23 08:53:29;;;;;;;18.00;12.10;;;;;;;7.26;74.80;101193.02;106543;1254;101346;-79
2024/04/23 08:56:22;;;;;;;17.50;12.50;;;;;;;7.24;73.74;101191.45;106544;1256;100176;-79
2024/04/23 08:59:12;;;;;;;17.90;11.20;;;;;;;7.25;73.64;101185.63;105938;1257;97821;-79
2024/04/23 09:02:03;;;;;;;21.40;11.50;;;;;;;7.27;73.86;101187.52;106099;1256;98831;-80
2024/04/23 09:04:49;;;;;;;16.10;9.00;;;;;;;7.33;73.59;101189.24;106047;1257;97996;-80
2024/04/23 09:07:35;;;;;;;11.30;8.50;;;;;;;7.39;72.46;101186.77;106172;1256;101330;-79
2024/04/23 09:10:20;;;;;;;14.30;8.50;;;;;;;7.38;70.25;101186.49;106277;1256;99127;-77
2024/04/23 09:13:06;;;;;;;11.80;8.80;;;;;;;7.38;70.01;101184.73;105425;1259;98088;-76
2024/04/23 09:15:52;;;;;;;14.60;10.30;;;;;;;7.38;70.47;101186.09;105477;1259;98066;-77
2024/04/23 09:18:38;;;;;;;13.40;9.30;;;;;;;7.39;70.53;101187.58;105482;1254;98466;-76
2024/04/23 09:21:23;;;;;;;13.50;9.70;;;;;;;7.37;70.49;101184.05;105490;1259;101353;-76
2024/04/23 09:24:10;;;;;;;11.90;9.20;;;;;;;7.36;70.49;101181.29;105551;1254;100338;-77
2024/04/23 09:26:57;;;;;;;11.50;7.20;;;;;;;7.36;70.27;101178.28;105436;1258;97977;-77
2024/04/23 09:29:43;;;;;;;10.30;7.20;;;;;;;7.35;69.40;101173.23;105448;1255;98030;-77
2024/04/23 09:32:29;;;;;;;12.50;8.20;;;;;;;7.34;68.85;101172.09;105480;1256;99777;-77
2024/04/23 09:35:15;;;;;;;11.30;8.50;;;;;;;7.34;68.70;101174.98;105440;1256;101499;-77
2024/04/23 09:38:04;;;;;;;10.60;7.40;;;;;;;7.32;67.82;101172.71;105480;1257;100473;-76
2024/04/23 09:40:50;;;;;;;12.30;7.10;;;;;;;7.30;67.95;101170.53;105459;1259;98359;-76
2024/04/23 09:43:36;;;;;;;12.70;8.90;;;;;;;7.33;68.89;101168.13;105524;1258;98615;-77
2024/04/23 09:46:28;;;;;;;12.90;8.30;;;;;;;7.37;68.53;101166.85;105464;1254;97821;-78
2024/04/23 09:49:13;;;;;;;11.60;8.40;;;;;;;7.40;68.08;101165.59;105492;1254;110113;-76
2024/04/23 09:51:59;;;;;;;11.30;8.40;;;;;;;7.41;68.11;101167.64;105377;1253;100028;-76
2024/04/23 09:54:44;;;;;;;11.90;7.60;;;;;;;7.42;68.08;101171.02;105653;1254;98998;-77
2024/04/23 09:57:34;;;;;;;12.20;8.20;;;;;;;7.41;68.16;101169.34;105504;1257;97967;-76
2024/04/23 10:00:20;;;;;;;18.30;10.70;;;;;;;7.40;67.54;101167.06;105580;1254;98396;-77
2024/04/23 10:03:11;;;;;;;17.70;10.60;;;;;;;7.39;67.47;101168.71;105534;1254;102618;-77
2024/04/23 10:06:04;;;;;;;12.20;8.60;;;;;;;7.39;67.15;101169.63;105372;1260;99169;-77
2024/04/23 10:09:02;;;;;;;9.90;6.90;;;;;;;7.39;66.88;101166.62;105401;1259;99272;-78
2024/04/23 10:12:03;;;;;;;10.60;7.60;;;;;;;7.42;66.88;101159.44;105445;1254;97980;-77
2024/04/23 10:14:57;;;;;;;10.30;7.60;;;;;;;7.44;66.04;101156.92;105407;1256;98076;-76
2024/04/23 10:17:53;;;;;;;12.30;8.40;;;;;;;7.44;66.30;101156.40;105688;1259;102568;-79
2024/04/23 10:20:44;;;;;;;11.30;7.70;;;;;;;7.47;66.62;101150.37;105536;1259;100409;-77
2024/04/23 10:23:31;;;;;;;12.50;7.70;;;;;;;7.50;66.67;101151.99;105421;1259;97961;-77
2024/04/23 10:26:17;;;;;;;13.00;8.30;;;;;;;7.52;66.72;101147.88;105502;1258;97958;-77
2024/04/23 10:29:03;;;;;;;11.20;8.40;;;;;;;7.56;66.78;101150.40;105411;1259;98531;-78
2024/04/23 10:31:49;;;;;;;10.90;8.60;;;;;;;7.59;66.85;101150.87;105420;1256;101355;-76
2024/04/23 10:34:37;;;;;;;11.80;8.50;;;;;;;7.62;66.66;101146.73;105398;1259;99235;-76
2024/04/23 10:37:25;;;;;;;11.60;8.00;;;;;;;7.64;66.61;101144.52;105502;1254;98726;-77
2024/04/23 10:40:14;;;;;;;12.30;8.60;;;;;;;7.68;66.21;101142.91;105513;1257;99285;-76
2024/04/23 10:43:01;;;;;;;12.10;8.30;;;;;;;7.67;65.77;101141.00;105511;1259;97900;-76
2024/04/23 10:45:47;;;;;;;12.30;8.60;;;;;;;7.67;65.76;101134.63;105496;1259;101338;-76
2024/04/23 10:48:37;;;;;;;12.40;9.20;;;;;;;7.73;66.50;101131.38;105550;1258;99974;-78
2024/04/23 10:51:25;;;;;;;11.10;8.10;;;;;;;7.77;65.67;101124.74;107722;1254;97893;-78
2024/04/23 10:54:14;;;;;;;13.70;9.20;;;;;;;7.82;65.77;101121.91;105309;1259;98073;-76
2024/04/23 10:57:09;;;;;;;15.50;8.80;;;;;;;7.90;66.10;101119.80;105379;1259;98944;-77
2024/04/23 10:59:55;;;;;;;12.00;8.60;;;;;;;8.01;65.87;101115.89;105462;1259;101710;-78
2024/04/23 11:02:40;;;;;;;16.30;10.20;;;;;;;8.11;65.91;101113.39;105518;1256;99143;-77
2024/04/23 11:05:32;;;;;;;16.40;9.70;;;;;;;8.18;65.30;101115.44;105477;1254;99099;-77
2024/04/23 11:08:28;;;;;;;13.80;9.60;;;;;;;8.23;64.80;101112.65;105381;1257;98127;-78
2024/04/23 11:11:22;;;;;;;14.00;9.00;;;;;;;8.29;64.48;101108.23;105459;1254;97897;-77
2024/04/23 11:14:07;;;;;;;11.70;8.90;;;;;;;8.35;63.48;101105.20;106946;1255;102580;-77
2024/04/23 11:17:00;;;;;;;15.00;9.40;;;;;;;8.39;63.90;101097.45;105435;1254;99121;-76
2024/04/23 11:19:49;;;;;;;13.30;9.30;;;;;;;8.55;65.48;101091.84;105437;1254;98753;-77
2024/04/23 11:22:38;;;;;;;15.50;9.70;;;;;;;8.64;64.22;101089.13;105553;1259;98028;-77
2024/04/23 11:25:28;;;;;;;12.10;9.50;;;;;;;8.62;62.68;101087.75;105465;1259;99794;-76
2024/04/23 11:28:15;;;;;;;10.30;8.80;;;;;;;8.63;62.66;101086.38;105367;1260;101298;-77
2024/04/23 11:31:01;;;;;;;15.80;9.70;;;;;;;8.68;62.70;101081.02;105487;1274;99119;-78
2024/04/23 11:33:49;;;;;;;15.20;9.60;;;;;;;8.72;62.66;101076.43;105362;1256;99145;-77
2024/04/23 11:36:36;;;;;;;12.90;8.80;;;;;;;8.78;62.84;101073.54;106071;1256;99163;-87
2024/04/23 11:39:25;;;;;;;11.70;8.80;;;;;;;8.84;62.53;101067.85;106717;1256;98393;-88
2024/04/23 11:42:12;;;;;;;14.20;8.70;;;;;;;8.89;61.45;101060.79;106514;1256;102643;-86
2024/04/23 11:44:59;;;;;;;11.80;8.50;;;;;;;8.95;61.48;101055.77;106370;1257;99131;-87
2024/04/23 11:47:45;;;;;;;14.30;8.30;;;;;;;9.02;61.32;101050.54;106555;1257;99024;-88
2024/04/23 11:50:31;;;;;;;14.20;9.20;;;;;;;9.09;61.32;101052.32;106234;1263;97974;-86
2024/04/23 11:53:17;;;;;;;14.80;9.10;;;;;;;9.13;60.80;101049.18;106364;1256;97936;-87
2024/04/23 11:56:04;;;;;;;15.30;9.50;;;;;;;9.16;60.29;101044.44;106477;1256;102216;-87
2024/04/23 11:58:51;;;;;;;15.30;10.10;;;;;;;9.19;60.61;101039.27;106529;1256;100907;-87
2024/04/23 12:01:36;;;;;;;15.30;9.70;;;;;;;9.25;61.09;101038.25;106541;1259;98086;-86
2024/04/23 12:04:23;;;;;;;15.70;9.90;;;;;;;9.30;61.17;101034.35;106502;1256;98042;-86
2024/04/23 12:07:11;;;;;;;11.40;8.50;;;;;;;9.37;60.98;101026.05;106609;1259;99626;-88
2024/04/23 12:10:03;;;;;;;11.50;9.10;;;;;;;9.44;61.00;101026.52;106558;1259;102155;-86
2024/04/23 12:12:51;;;;;;;10.60;8.70;;;;;;;9.56;61.04;101018.58;106512;1254;100395;-86
2024/04/23 12:15:37;;;;;;;12.20;9.30;;;;;;;9.66;60.09;101014.77;106637;1255;97967;-87
2024/04/23 12:18:24;;;;;;;12.40;8.50;;;;;;;9.68;58.87;101009.39;106540;1262;99176;-86
2024/04/23 12:21:10;;;;;;;12.20;9.40;;;;;;;9.64;57.72;101005.62;106681;1254;98064;-85
2024/04/23 12:23:55;;;;;;;15.30;9.90;;;;;;;9.66;58.69;100998.73;106430;1255;101339;-87
2024/04/23 12:26:43;;;;;;;12.40;9.30;;;;;;;9.72;58.71;100992.90;106703;1255;99184;-88
2024/04/23 12:29:30;;;;;;;14.10;9.00;;;;;;;9.75;58.15;100985.23;106601;1257;99118;-88
2024/04/23 12:32:23;;;;;;;11.30;9.00;;;;;;;9.79;57.61;100977.33;106435;1254;97866;-87
2024/04/23 12:35:09;;;;;;;10.40;8.30;;;;;;;9.83;57.53;100971.33;106651;1254;96563;-87
2024/04/23 12:37:58;;;;;;;10.90;8.80;;;;;;;9.91;57.56;100968.39;106473;1258;102778;-83
2024/04/23 12:40:45;;;;;;;11.60;8.40;;;;;;;9.93;56.20;100965.30;106545;1254;99150;-82
2024/04/23 12:43:30;;;;;;;11.30;8.80;;;;;;;9.90;55.03;100963.88;106340;1254;97891;-79
2024/04/23 12:46:17;;;;;;;13.50;8.10;;;;;;;9.82;54.20;100957.89;105945;1257;97965;-83
2024/04/23 12:49:03;;;;;;;12.20;9.50;;;;;;;9.74;54.70;100957.37;106527;1256;97859;-84